Walnut Hill, Virginia
Current Conditions -  °F | °C
As of 11:55 PM on Saturday 25 Oct 2014 (Local Time) from KPTB Reporting Station
Clear Clear  
Wind Chill: 53°   Ceiling: Unl
Heat Index: 53°   Visibility: 10mi
Dew Point: 44°   Wind: 6mph
Humidity: 71%   Direction: 230°SW
Pressure: 29.78"   Gusts: NA
Location:  37.135°N, 77.3913°W
Report Text: KPTB 260355Z AUTO 23005KT 10SM CLR 12/07 A2978 RMK AO2 T01180066
Loading
Personal Weather Stations






























Interactive Weather Map
Tropical Storm Tracking
New forecast layout! Learn more

10-Day Weather Forecast

Advertisements
Track Severe Weather on mobile